KPOY

Powell Municipal Airport

Powell, Wyoming, USA
METAR KPOY 170235Z AUTO 18006KT 10SM CLR 06/M03 A3038 RMK AO2
Observed Flight Rules
Oct-17 @ 02:35 UTC (35 minutes ago) Visual Flight Rules
Wind Visibility Clouds
180° at 6 knots 10 miles
  • Clear skies
Temperatures Readings
Current 6°C / 43°F
Dewpoint -3°C / 27°F
Humidity 53%
Altimeter 30.38" Hg
Pressure 1029 hPa
Elevation 1552
METAR KPOY 170235Z AUTO 18006KT 10SM CLR 06/M03 A3038 RMK AO2
Observed Flight Rules
Oct-17 @ 02:35 UTC
(35 minutes ago)
VFR
Wind Visibility
180° at 6 knots 10 miles
Clouds
  • Clear skies
Temperature Dewpoint
6°C / 43°F -3°C / 27°F
Humidity Altimeter Pressure
53% 30.38" Hg 1029 hPa